createdAt,value
2018-04-26T00:01:57.165Z,2.30
2018-04-26T00:04:25.855Z,1.97
2018-04-26T00:06:54.073Z,2.03
2018-04-26T00:09:22.273Z,1.70
2018-04-26T00:11:50.706Z,2.10
2018-04-26T00:14:18.982Z,1.70
2018-04-26T00:16:47.231Z,1.87
2018-04-26T00:19:15.847Z,2.10
2018-04-26T00:21:44.053Z,2.43
2018-04-26T00:24:12.455Z,2.07
2018-04-26T00:26:41.115Z,1.70
2018-04-26T00:29:09.313Z,2.10
2018-04-26T00:31:37.619Z,1.70
2018-04-26T00:34:06.093Z,1.93
2018-04-26T00:36:34.341Z,2.10
2018-04-26T00:39:02.741Z,1.90
2018-04-26T00:41:31.235Z,2.67
2018-04-26T00:43:59.458Z,2.17
2018-04-26T00:46:27.877Z,1.80
2018-04-26T00:48:56.479Z,1.97
2018-04-26T00:51:36.603Z,2.17
2018-04-26T00:54:04.828Z,1.97
2018-04-26T00:56:33.030Z,1.80
2018-04-26T00:59:01.691Z,1.83
2018-04-26T01:01:29.891Z,2.17
2018-04-26T01:03:58.214Z,2.33
2018-04-26T01:06:26.924Z,2.40
2018-04-26T01:08:55.130Z,2.63
2018-04-26T01:11:23.445Z,2.33
2018-04-26T01:13:52.424Z,2.27
2018-04-26T01:16:20.659Z,2.10
2018-04-26T01:18:48.841Z,2.30
2018-04-26T01:21:17.579Z,2.57
2018-04-26T01:23:45.778Z,1.83
2018-04-26T01:26:13.988Z,2.30
2018-04-26T01:28:42.759Z,2.10
2018-04-26T01:31:10.965Z,3.00
2018-04-26T01:33:39.175Z,2.23
2018-04-26T01:36:07.857Z,2.70
2018-04-26T01:38:36.077Z,2.67
2018-04-26T01:41:04.301Z,2.60
2018-04-26T01:43:32.971Z,3.10
2018-04-26T01:46:01.176Z,2.80
2018-04-26T01:48:30.248Z,2.33
2018-04-26T01:50:58.522Z,2.10
2018-04-26T01:53:27.370Z,2.30
2018-04-26T01:55:55.590Z,2.87
2018-04-26T01:58:23.790Z,2.77
2018-04-26T02:00:52.503Z,2.07
2018-04-26T02:03:20.694Z,2.63
2018-04-26T02:05:48.931Z,2.57
2018-04-26T02:08:17.638Z,3.20
2018-04-26T02:10:45.835Z,2.37
2018-04-26T02:13:14.070Z,2.77
2018-04-26T02:15:42.834Z,2.80
2018-04-26T02:18:11.037Z,2.57
2018-04-26T02:20:39.238Z,2.90
2018-04-26T02:23:07.856Z,2.53
2018-04-26T02:25:36.202Z,2.60
2018-04-26T02:28:05.025Z,2.50
2018-04-26T02:30:33.739Z,2.63
2018-04-26T02:33:01.975Z,2.67
2018-04-26T02:35:30.235Z,2.60
2018-04-26T02:37:58.884Z,2.87
2018-04-26T02:40:27.141Z,3.17
2018-04-26T02:42:55.368Z,2.50
2018-04-26T02:45:23.991Z,2.60
2018-04-26T02:47:52.196Z,3.30
2018-04-26T02:50:20.627Z,3.47
2018-04-26T02:52:49.145Z,3.40
2018-04-26T02:55:17.986Z,2.53
2018-04-26T02:57:46.196Z,3.43
2018-04-26T03:00:14.835Z,3.17
2018-04-26T03:02:43.066Z,3.00
2018-04-26T03:05:11.283Z,2.87
2018-04-26T03:07:39.877Z,2.90
2018-04-26T03:10:08.124Z,3.43
2018-04-26T03:12:36.325Z,3.40
2018-04-26T03:15:05.101Z,3.63
2018-04-26T03:17:33.344Z,2.93
2018-04-26T03:20:01.980Z,2.67
2018-04-26T03:22:40.624Z,3.73
2018-04-26T03:25:09.338Z,3.13
2018-04-26T03:27:37.525Z,2.57
2018-04-26T03:30:06.480Z,3.20
2018-04-26T03:32:35.062Z,2.90
2018-04-26T03:35:03.924Z,2.80
2018-04-26T03:37:32.165Z,3.60
2018-04-26T03:40:00.991Z,3.50
2018-04-26T03:42:29.631Z,3.17
2018-04-26T03:44:57.850Z,3.00
2018-04-26T03:47:26.074Z,3.20
2018-04-26T03:49:54.713Z,3.43
2018-04-26T03:52:22.909Z,3.00
2018-04-26T03:54:51.164Z,4.47
2018-04-26T03:57:19.901Z,3.53
2018-04-26T04:00:00.567Z,3.50
2018-04-26T04:02:41.617Z,3.50
2018-04-26T04:08:13.118Z,3.43
2018-04-26T04:10:41.503Z,3.07
2018-04-26T04:13:10.264Z,3.40
2018-04-26T04:15:38.446Z,3.33
2018-04-26T04:18:06.713Z,3.83
2018-04-26T04:20:35.512Z,3.60
2018-04-26T04:23:03.750Z,3.50
2018-04-26T04:25:32.160Z,3.53
2018-04-26T04:28:01.012Z,3.27
2018-04-26T04:30:29.164Z,4.17
2018-04-26T04:32:57.352Z,3.47
2018-04-26T04:35:25.650Z,3.10
2018-04-26T04:37:53.820Z,3.10
2018-04-26T04:40:23.159Z,3.43
2018-04-26T04:42:51.369Z,2.43
2018-04-26T04:45:19.543Z,3.30
2018-04-26T04:47:47.780Z,2.97
2018-04-26T04:50:16.640Z,2.97
2018-04-26T04:52:44.847Z,2.83
2018-04-26T04:55:13.601Z,2.90
2018-04-26T04:57:42.735Z,2.63
2018-04-26T05:00:10.948Z,3.50
2018-04-26T05:02:39.159Z,2.57
2018-04-26T05:05:07.740Z,3.33
2018-04-26T05:07:35.971Z,2.93
2018-04-26T05:10:04.199Z,3.63
2018-04-26T05:12:55.234Z,3.47
2018-04-26T05:15:29.301Z,3.03
2018-04-26T05:17:57.987Z,4.13
2018-04-26T05:20:26.177Z,3.07
2018-04-26T05:22:54.517Z,4.27
2018-04-26T05:25:23.155Z,3.70
2018-04-26T05:27:51.353Z,3.37
2018-04-26T05:30:19.709Z,3.83
2018-04-26T05:32:48.469Z,3.67
2018-04-26T05:35:16.925Z,3.40
2018-04-26T05:37:45.139Z,4.10
2018-04-26T05:40:13.886Z,4.30
2018-04-26T05:42:42.110Z,3.50
2018-04-26T05:45:10.300Z,3.87
2018-04-26T05:47:39.027Z,4.13
2018-04-26T05:50:07.253Z,4.03
2018-04-26T05:52:35.474Z,4.97
2018-04-26T05:55:04.239Z,4.90
2018-04-26T05:57:32.483Z,4.50
2018-04-26T06:00:00.715Z,4.30
2018-04-26T06:02:29.343Z,4.47
2018-04-26T06:04:57.585Z,5.63
2018-04-26T06:07:25.824Z,5.37
2018-04-26T06:09:54.668Z,3.97
2018-04-26T06:12:23.679Z,4.03
2018-04-26T06:14:51.929Z,4.83
2018-04-26T06:17:20.740Z,5.33
2018-04-26T06:19:49.695Z,4.57
2018-04-26T06:22:18.727Z,5.03
2018-04-26T06:24:46.944Z,5.33
2018-04-26T06:27:15.794Z,4.47
2018-04-26T06:29:44.613Z,5.07
2018-04-26T06:32:12.855Z,5.40
2018-04-26T06:34:41.057Z,4.53
2018-04-26T06:37:09.777Z,4.97
2018-04-26T06:39:38.034Z,5.10
2018-04-26T06:42:06.272Z,6.20
2018-04-26T06:44:34.911Z,5.67
2018-04-26T06:47:03.167Z,5.67
2018-04-26T06:49:31.389Z,5.60
2018-04-26T06:52:00.153Z,6.17
2018-04-26T06:54:28.399Z,6.20
2018-04-26T06:56:56.576Z,6.90
2018-04-26T06:59:25.292Z,5.77
2018-04-26T07:01:53.643Z,5.67
2018-04-26T07:04:21.861Z,6.07
2018-04-26T07:06:50.715Z,5.70
2018-04-26T07:09:19.508Z,6.43
2018-04-26T07:11:47.731Z,6.30
2018-04-26T07:14:16.515Z,5.90
2018-04-26T07:16:45.087Z,6.10
2018-04-26T07:19:13.354Z,6.43
2018-04-26T07:21:41.654Z,5.60
2018-04-26T07:24:10.199Z,6.40
2018-04-26T07:26:38.443Z,6.53
2018-04-26T07:29:06.713Z,7.10
2018-04-26T07:31:35.232Z,5.57
2018-04-26T07:34:03.502Z,5.97
2018-04-26T07:36:31.779Z,5.67
2018-04-26T07:39:00.523Z,5.13
2018-04-26T07:41:28.793Z,5.00
2018-04-26T07:43:57.019Z,5.57
2018-04-26T07:46:25.608Z,6.07
2018-04-26T07:48:53.860Z,5.93
2018-04-26T07:51:22.085Z,5.77
2018-04-26T07:53:50.793Z,6.17
2018-04-26T07:56:19.016Z,6.13
2018-04-26T07:58:47.320Z,6.17
2018-04-26T08:01:15.881Z,5.07
2018-04-26T08:03:44.116Z,4.67
2018-04-26T08:06:12.369Z,4.57
2018-04-26T08:08:40.995Z,4.03
2018-04-26T08:11:09.342Z,3.83
2018-04-26T08:13:37.633Z,4.33
2018-04-26T08:16:06.195Z,3.67
2018-04-26T08:18:34.444Z,4.30
2018-04-26T08:21:02.777Z,3.83
2018-04-26T08:23:31.405Z,4.00
2018-04-26T08:25:59.635Z,3.80
2018-04-26T08:28:28.013Z,3.90
2018-04-26T08:30:56.538Z,3.23
2018-04-26T08:33:24.839Z,3.50
2018-04-26T08:35:53.192Z,3.63
2018-04-26T08:38:21.733Z,3.87
2018-04-26T08:40:49.958Z,4.20
2018-04-26T08:43:18.313Z,3.70
2018-04-26T08:45:46.871Z,3.60
2018-04-26T08:48:15.074Z,3.03
2018-04-26T08:50:43.453Z,3.27
2018-04-26T08:53:12.123Z,4.17
2018-04-26T08:55:40.332Z,3.30
2018-04-26T08:58:08.536Z,4.03
2018-04-26T09:00:37.193Z,4.07
2018-04-26T09:03:05.431Z,4.67
2018-04-26T09:05:33.702Z,3.50
2018-04-26T09:08:02.388Z,3.73
2018-04-26T09:10:30.671Z,4.07
2018-04-26T09:12:58.880Z,3.20
2018-04-26T09:15:27.542Z,2.67
2018-04-26T09:17:55.770Z,2.60
2018-04-26T09:20:24.179Z,2.43
2018-04-26T09:22:52.809Z,3.07
2018-04-26T09:25:21.030Z,3.10
2018-04-26T09:27:49.419Z,2.80
2018-04-26T09:30:17.911Z,2.90
2018-04-26T09:32:46.117Z,3.53
2018-04-26T09:35:14.513Z,3.33
2018-04-26T09:37:43.140Z,2.93
2018-04-26T09:40:11.380Z,3.43
2018-04-26T09:42:39.752Z,3.47
2018-04-26T09:45:08.377Z,3.27
2018-04-26T09:47:36.616Z,3.10
2018-04-26T09:50:04.861Z,3.27
2018-04-26T09:52:33.499Z,4.20
2018-04-26T09:55:01.718Z,3.57
2018-04-26T09:57:30.091Z,3.63
2018-04-26T09:59:58.668Z,4.13
2018-04-26T10:02:26.895Z,4.00
2018-04-26T10:04:55.273Z,3.30
2018-04-26T10:07:23.842Z,5.13
2018-04-26T10:09:52.113Z,3.83
2018-04-26T10:12:20.363Z,3.67
2018-04-26T10:14:48.967Z,3.37
2018-04-26T10:17:17.185Z,4.00
2018-04-26T10:19:45.515Z,3.27
2018-04-26T10:22:14.169Z,3.60
2018-04-26T10:24:42.376Z,3.47
2018-04-26T10:27:11.800Z,3.83
2018-04-26T10:29:40.085Z,2.97
2018-04-26T10:32:08.836Z,2.57
2018-04-26T10:34:37.048Z,2.93
2018-04-26T10:37:05.270Z,2.93
2018-04-26T10:39:33.963Z,3.03
2018-04-26T10:42:02.176Z,2.80
2018-04-26T10:44:30.403Z,2.73
2018-04-26T10:46:59.588Z,3.30
2018-04-26T10:49:27.826Z,3.07
2018-04-26T10:51:56.399Z,3.60
2018-04-26T10:54:24.878Z,3.20
2018-04-26T10:56:53.073Z,4.23
2018-04-26T10:59:21.502Z,4.03
2018-04-26T11:01:50.047Z,3.60
2018-04-26T11:04:18.277Z,3.87
2018-04-26T11:06:46.575Z,4.23
2018-04-26T11:09:15.224Z,4.83
2018-04-26T11:11:43.521Z,4.20
2018-04-26T11:14:11.721Z,3.20
2018-04-26T11:16:40.372Z,2.80
2018-04-26T11:19:08.595Z,3.23
2018-04-26T11:21:37.053Z,3.10
2018-04-26T11:24:05.595Z,3.60
2018-04-26T11:26:33.824Z,3.23
2018-04-26T11:29:02.207Z,2.80
2018-04-26T11:31:31.357Z,2.90
2018-04-26T11:36:34.140Z,2.90
2018-04-26T11:39:02.308Z,3.67
2018-04-26T11:41:30.962Z,3.10
2018-04-26T11:43:59.189Z,3.50
2018-04-26T11:46:27.607Z,3.03
2018-04-26T11:48:56.241Z,2.63
2018-04-26T11:51:24.467Z,3.40
2018-04-26T11:53:52.740Z,2.70
2018-04-26T11:56:21.476Z,2.43
2018-04-26T11:58:49.625Z,2.43
2018-04-26T12:01:17.979Z,2.83
2018-04-26T12:03:46.601Z,2.23
2018-04-26T12:06:14.804Z,2.77
2018-04-26T12:08:43.273Z,2.80
2018-04-26T12:11:11.751Z,2.63
2018-04-26T12:13:39.963Z,2.80
2018-04-26T12:16:08.455Z,2.30
2018-04-26T12:18:36.964Z,2.13
2018-04-26T12:21:05.261Z,2.57
2018-04-26T12:23:33.530Z,2.97
2018-04-26T12:26:02.229Z,2.40
2018-04-26T12:28:30.441Z,2.63
2018-04-26T12:30:58.714Z,2.83
2018-04-26T12:33:27.376Z,2.60
2018-04-26T12:35:55.579Z,2.37
2018-04-26T12:38:24.009Z,2.63
2018-04-26T12:40:52.548Z,2.57
2018-04-26T12:43:20.802Z,2.90
2018-04-26T12:45:49.024Z,2.30
2018-04-26T12:48:17.976Z,2.80
2018-04-26T12:50:46.192Z,2.50
2018-04-26T12:53:14.392Z,2.63
2018-04-26T12:55:42.851Z,2.43
2018-04-26T12:58:11.130Z,2.90
2018-04-26T13:00:39.359Z,2.80
2018-04-26T13:03:07.981Z,2.33
2018-04-26T13:05:36.218Z,2.33
2018-04-26T13:08:04.499Z,2.33
2018-04-26T13:10:33.113Z,2.63
2018-04-26T13:13:01.354Z,1.97
2018-04-26T13:15:30.417Z,2.70
2018-04-26T13:17:58.925Z,2.70
2018-04-26T13:20:27.110Z,1.93
2018-04-26T13:22:55.324Z,2.60
2018-04-26T13:25:23.786Z,2.20
2018-04-26T13:27:52.023Z,2.50
2018-04-26T13:30:20.412Z,3.93
2018-04-26T13:32:49.032Z,3.23
2018-04-26T13:35:17.239Z,2.80
2018-04-26T13:37:45.531Z,5.80
2018-04-26T13:40:14.088Z,2.97
2018-04-26T13:42:42.297Z,3.60
2018-04-26T13:45:10.693Z,2.87
2018-04-26T13:47:39.282Z,2.83
2018-04-26T13:50:07.497Z,2.30
2018-04-26T13:52:35.728Z,2.97
2018-04-26T13:55:04.382Z,3.13
2018-04-26T13:57:32.591Z,3.03
2018-04-26T14:00:00.976Z,2.70
2018-04-26T14:02:29.127Z,2.90
2018-04-26T14:04:57.295Z,2.20
2018-04-26T14:07:25.507Z,1.93
2018-04-26T14:09:53.722Z,2.10
2018-04-26T14:12:21.906Z,2.10
2018-04-26T14:14:50.337Z,2.30
2018-04-26T14:17:18.551Z,2.23
2018-04-26T14:19:46.766Z,2.60
2018-04-26T14:22:15.223Z,2.50
2018-04-26T14:24:43.445Z,2.57
2018-04-26T14:27:11.683Z,3.17
2018-04-26T14:29:40.340Z,2.00
2018-04-26T14:32:08.460Z,2.90
2018-04-26T14:34:36.830Z,2.60
2018-04-26T14:37:05.351Z,2.50
2018-04-26T14:39:33.541Z,1.97
2018-04-26T14:42:01.979Z,2.20
2018-04-26T14:44:30.506Z,2.00
2018-04-26T14:46:58.740Z,2.43
2018-04-26T14:49:27.168Z,2.00
2018-04-26T14:51:55.808Z,1.80
2018-04-26T14:54:24.113Z,2.37
2018-04-26T14:56:52.336Z,2.00
2018-04-26T14:59:20.958Z,2.67
2018-04-26T15:01:49.170Z,2.20
2018-04-26T15:04:17.551Z,2.10
2018-04-26T15:06:46.160Z,2.27
2018-04-26T15:09:14.391Z,2.33
2018-04-26T15:11:42.828Z,1.70
2018-04-26T15:14:11.396Z,1.90
2018-04-26T15:16:39.592Z,2.27
2018-04-26T15:19:07.993Z,1.50
2018-04-26T15:21:36.557Z,2.10
2018-04-26T15:24:05.058Z,2.17
2018-04-26T15:26:33.250Z,1.70
2018-04-26T15:29:01.765Z,1.90
2018-04-26T15:31:30.041Z,2.33
2018-04-26T15:33:58.434Z,2.00
2018-04-26T15:36:27.077Z,2.70
2018-04-26T15:38:55.339Z,2.83
2018-04-26T15:41:23.513Z,2.73
2018-04-26T15:43:52.154Z,2.77
2018-04-26T15:46:20.358Z,2.50
2018-04-26T15:48:48.889Z,2.20
2018-04-26T15:51:17.552Z,2.70
2018-04-26T15:53:57.610Z,2.30
2018-04-26T15:56:54.678Z,2.00
2018-04-26T15:59:34.745Z,2.30
2018-04-26T16:05:39.012Z,2.10
2018-04-26T16:08:25.241Z,3.40
2018-04-26T16:11:11.716Z,1.73
2018-04-26T16:13:57.686Z,1.47
2018-04-26T16:16:43.383Z,1.70
2018-04-26T16:19:33.007Z,1.87
2018-04-26T16:22:19.205Z,1.50
2018-04-26T16:24:59.217Z,2.07
2018-04-26T16:27:44.235Z,2.50
2018-04-26T16:30:24.219Z,1.97
2018-04-26T16:33:05.307Z,2.37
2018-04-26T16:35:45.212Z,2.27
2018-04-26T16:38:25.224Z,2.13
2018-04-26T16:40:53.472Z,2.50
2018-04-26T16:43:21.729Z,3.17
2018-04-26T16:45:50.418Z,2.30
2018-04-26T16:48:18.659Z,2.27
2018-04-26T16:50:46.886Z,2.33
2018-04-26T16:53:15.738Z,2.33
2018-04-26T16:55:43.958Z,1.50
2018-04-26T16:58:12.195Z,1.20
2018-04-26T17:00:40.701Z,1.73
2018-04-26T17:03:08.925Z,1.43
2018-04-26T17:05:38.457Z,1.07
2018-04-26T17:08:07.078Z,1.60
2018-04-26T17:10:35.624Z,1.20
2018-04-26T17:13:03.844Z,1.30
2018-04-26T17:15:32.107Z,1.30
2018-04-26T17:18:00.754Z,1.20
2018-04-26T17:20:30.182Z,1.43
2018-04-26T17:22:58.398Z,1.70
2018-04-26T17:25:26.583Z,1.63
2018-04-26T17:27:55.325Z,1.20
2018-04-26T17:30:23.511Z,1.10
2018-04-26T17:32:51.736Z,1.43
2018-04-26T17:35:20.583Z,1.30
2018-04-26T17:37:48.790Z,1.30
2018-04-26T17:40:17.091Z,1.43
2018-04-26T17:42:45.297Z,1.30
2018-04-26T17:45:13.599Z,1.70
2018-04-26T17:47:42.551Z,2.00
2018-04-26T17:50:11.538Z,1.53
2018-04-26T17:52:39.870Z,1.90
2018-04-26T17:55:08.467Z,1.43
2018-04-26T17:57:36.765Z,1.53
2018-04-26T18:00:05.229Z,3.20
2018-04-26T18:02:34.293Z,3.27
2018-04-26T18:05:03.380Z,1.63
2018-04-26T18:07:31.558Z,2.10
2018-04-26T18:09:59.808Z,2.10
2018-04-26T18:12:28.518Z,2.80
2018-04-26T18:14:56.727Z,1.90
2018-04-26T18:17:25.551Z,2.20
2018-04-26T18:20:01.040Z,1.83
2018-04-26T18:22:22.372Z,1.97
2018-04-26T18:24:50.646Z,2.97
2018-04-26T18:27:19.266Z,3.30
2018-04-26T18:29:47.464Z,2.77
2018-04-26T18:32:16.178Z,2.00
2018-04-26T18:34:45.086Z,2.33
2018-04-26T18:37:14.063Z,2.90
2018-04-26T18:39:42.258Z,2.47
2018-04-26T18:42:11.050Z,3.13
2018-04-26T18:44:39.760Z,1.80
2018-04-26T18:47:08.008Z,6.60
2018-04-26T18:49:36.260Z,2.30
2018-04-26T18:52:04.940Z,2.40
2018-04-26T18:54:33.181Z,2.57
2018-04-26T18:57:01.555Z,3.10
2018-04-26T18:59:30.039Z,4.17
2018-04-26T19:01:58.287Z,5.93
2018-04-26T19:04:26.640Z,3.40
2018-04-26T19:06:55.255Z,2.70
2018-04-26T19:09:23.548Z,3.57
2018-04-26T19:11:51.965Z,4.10
2018-04-26T19:14:20.797Z,2.90
2018-04-26T19:16:49.044Z,3.30
2018-04-26T19:19:17.387Z,3.07
2018-04-26T19:21:46.047Z,2.43
2018-04-26T19:24:14.266Z,2.43
2018-04-26T19:26:42.542Z,2.30
2018-04-26T19:29:11.199Z,2.83
2018-04-26T19:31:39.390Z,2.97
2018-04-26T19:34:07.588Z,2.70
2018-04-26T19:36:36.266Z,3.07
2018-04-26T19:39:04.489Z,2.70
2018-04-26T19:41:32.772Z,3.33
2018-04-26T19:44:01.565Z,2.93
2018-04-26T19:46:29.807Z,3.70
2018-04-26T19:48:58.018Z,3.93
2018-04-26T19:51:26.451Z,4.50
2018-04-26T19:53:54.638Z,4.80
2018-04-26T19:56:22.968Z,4.70
2018-04-26T19:58:51.739Z,3.20
2018-04-26T20:01:20.465Z,3.67
2018-04-26T20:03:48.970Z,3.13
2018-04-26T20:06:17.513Z,2.80
2018-04-26T20:08:45.782Z,3.37
2018-04-26T20:11:13.977Z,3.20
2018-04-26T20:13:42.609Z,2.97
2018-04-26T20:16:10.825Z,3.10
2018-04-26T20:18:39.100Z,3.33
2018-04-26T20:21:08.838Z,3.20
2018-04-26T20:23:38.206Z,2.67
2018-04-26T20:26:06.412Z,2.53
2018-04-26T20:28:34.642Z,3.10
2018-04-26T20:31:03.359Z,2.50
2018-04-26T20:33:31.580Z,2.77
2018-04-26T20:35:59.796Z,3.30
2018-04-26T20:38:28.540Z,3.17
2018-04-26T20:40:56.781Z,3.07
2018-04-26T20:43:24.988Z,2.90
2018-04-26T20:45:53.796Z,3.27
2018-04-26T20:48:33.896Z,3.13
2018-04-26T20:51:02.132Z,3.60
2018-04-26T20:53:30.356Z,3.40
2018-04-26T20:55:58.950Z,3.43
2018-04-26T20:58:27.160Z,3.43
2018-04-26T21:00:55.421Z,3.13
2018-04-26T21:03:24.169Z,2.93
2018-04-26T21:05:52.468Z,3.57
2018-04-26T21:08:20.788Z,3.10
2018-04-26T21:10:49.387Z,3.23
2018-04-26T21:13:17.657Z,3.43
2018-04-26T21:15:45.909Z,3.83
2018-04-26T21:18:14.512Z,3.47
2018-04-26T21:20:42.830Z,3.63
2018-04-26T21:23:11.174Z,4.03
2018-04-26T21:25:39.794Z,4.07
2018-04-26T21:28:08.072Z,4.40
2018-04-26T21:30:36.346Z,3.40
2018-04-26T21:33:04.893Z,4.23
2018-04-26T21:35:33.253Z,3.60
2018-04-26T21:38:01.486Z,4.47
2018-04-26T21:40:30.148Z,4.23
2018-04-26T21:42:58.444Z,3.43
2018-04-26T21:45:26.706Z,3.53
2018-04-26T21:47:55.281Z,4.03
2018-04-26T21:50:29.285Z,3.40
2018-04-26T21:53:03.136Z,3.40
2018-04-26T21:55:37.027Z,3.73
2018-04-26T21:58:11.072Z,4.00
2018-04-26T22:00:44.896Z,3.53
2018-04-26T22:03:13.198Z,3.73
2018-04-26T22:05:41.853Z,3.80
2018-04-26T22:08:10.426Z,3.77
2018-04-26T22:10:38.702Z,3.53
2018-04-26T22:13:06.968Z,3.90
2018-04-26T22:15:35.630Z,4.23
2018-04-26T22:18:03.915Z,4.00
2018-04-26T22:20:32.206Z,4.50
2018-04-26T22:23:00.812Z,4.00
2018-04-26T22:25:29.133Z,4.03
2018-04-26T22:27:57.400Z,3.97
2018-04-26T22:30:25.995Z,4.00
2018-04-26T22:32:54.278Z,4.90
2018-04-26T22:35:22.557Z,4.07
2018-04-26T22:37:51.273Z,4.60
2018-04-26T22:40:19.630Z,4.13
2018-04-26T22:42:47.918Z,4.50
2018-04-26T22:45:16.763Z,4.70
2018-04-26T22:47:45.062Z,4.77
2018-04-26T22:50:13.348Z,4.93
2018-04-26T22:52:42.038Z,4.70
2018-04-26T22:55:10.372Z,5.20
2018-04-26T22:57:38.674Z,5.03
2018-04-26T23:00:07.560Z,4.50
2018-04-26T23:02:36.273Z,4.37
2018-04-26T23:05:04.583Z,4.50
2018-04-26T23:07:32.941Z,4.13
2018-04-26T23:10:02.440Z,5.10
2018-04-26T23:12:30.746Z,5.10
2018-04-26T23:14:59.097Z,4.33
2018-04-26T23:17:27.957Z,4.80
2018-04-26T23:19:56.715Z,4.73
2018-04-26T23:22:24.988Z,4.80
2018-04-26T23:24:53.297Z,5.23
2018-04-26T23:27:21.867Z,4.93
2018-04-26T23:29:50.197Z,4.13
2018-04-26T23:32:18.985Z,3.90
2018-04-26T23:34:47.669Z,3.77
2018-04-26T23:37:16.015Z,3.60
2018-04-26T23:39:44.264Z,4.37
2018-04-26T23:42:13.026Z,4.00
2018-04-26T23:44:41.319Z,3.87
2018-04-26T23:47:09.628Z,3.77
2018-04-26T23:49:38.489Z,4.00
2018-04-26T23:52:06.823Z,4.00
2018-04-26T23:54:35.105Z,3.73
2018-04-26T23:57:03.706Z,3.10
2018-04-26T23:59:32.001Z,3.27
